Ione, California
Current Conditions -  °F | °C
As of 9:45 AM on Friday 28 Nov 2014 (Local Time) from KMHR Reporting Station
Broken Clouds Broken Clouds  
Wind Chill: 54°   Ceiling: 18000
Heat Index: 54°   Visibility: 5mi
Dew Point: 54°   Wind: 6mph
Humidity: 100%   Direction: 230°SW
Pressure: 30.03"   Gusts: NA
Location:  38.35°N, 120.93°W
Report Text: KMHR 281745Z 23005KT 5SM BKN180 12/12 A3003
Loading
Personal Weather Stations






























Interactive Weather Map New forecast layout! Learn more

10-Day Weather Forecast

Advertisements
Track Severe Weather on mobile